sensor_id;sensor_type;location;lat;lon;timestamp;P1;durP1;ratioP1;P2;durP2;ratioP2
3985;SDS011;2007;48.750;9.278;2024-03-07T00:00:06;3.33;;;2.77;;
3985;SDS011;2007;48.750;9.278;2024-03-07T00:02:41;4.60;;;2.90;;
3985;SDS011;2007;48.750;9.278;2024-03-07T00:05:10;3.60;;;2.73;;
3985;SDS011;2007;48.750;9.278;2024-03-07T00:07:39;2.93;;;2.70;;
3985;SDS011;2007;48.750;9.278;2024-03-07T00:10:08;2.80;;;2.43;;
3985;SDS011;2007;48.750;9.278;2024-03-07T00:12:38;3.60;;;2.73;;
3985;SDS011;2007;48.750;9.278;2024-03-07T00:15:08;2.67;;;2.47;;
3985;SDS011;2007;48.750;9.278;2024-03-07T00:17:37;2.90;;;2.40;;
3985;SDS011;2007;48.750;9.278;2024-03-07T00:20:06;3.07;;;2.77;;
3985;SDS011;2007;48.750;9.278;2024-03-07T00:22:41;3.17;;;2.83;;
3985;SDS011;2007;48.750;9.278;2024-03-07T00:25:09;3.13;;;2.50;;
3985;SDS011;2007;48.750;9.278;2024-03-07T00:27:42;4.60;;;2.60;;
3985;SDS011;2007;48.750;9.278;2024-03-07T00:30:12;4.23;;;3.10;;
3985;SDS011;2007;48.750;9.278;2024-03-07T00:32:45;3.80;;;3.30;;
3985;SDS011;2007;48.750;9.278;2024-03-07T00:35:14;3.00;;;2.47;;
3985;SDS011;2007;48.750;9.278;2024-03-07T00:37:42;2.77;;;2.50;;
3985;SDS011;2007;48.750;9.278;2024-03-07T00:40:11;4.27;;;3.10;;
3985;SDS011;2007;48.750;9.278;2024-03-07T00:42:39;4.23;;;3.83;;
3985;SDS011;2007;48.750;9.278;2024-03-07T00:45:08;3.40;;;3.10;;
3985;SDS011;2007;48.750;9.278;2024-03-07T00:47:37;3.50;;;2.90;;
3985;SDS011;2007;48.750;9.278;2024-03-07T00:50:06;3.60;;;3.03;;
3985;SDS011;2007;48.750;9.278;2024-03-07T00:52:35;3.53;;;3.13;;
3985;SDS011;2007;48.750;9.278;2024-03-07T00:55:04;3.87;;;3.47;;
3985;SDS011;2007;48.750;9.278;2024-03-07T00:57:34;3.20;;;2.90;;
3985;SDS011;2007;48.750;9.278;2024-03-07T01:00:05;5.73;;;3.33;;
3985;SDS011;2007;48.750;9.278;2024-03-07T01:02:41;4.20;;;3.10;;
3985;SDS011;2007;48.750;9.278;2024-03-07T01:05:10;3.53;;;3.23;;
3985;SDS011;2007;48.750;9.278;2024-03-07T01:07:40;4.33;;;3.27;;
3985;SDS011;2007;48.750;9.278;2024-03-07T01:10:09;3.37;;;3.07;;
3985;SDS011;2007;48.750;9.278;2024-03-07T01:12:37;3.87;;;3.47;;
3985;SDS011;2007;48.750;9.278;2024-03-07T01:15:06;3.53;;;3.17;;
3985;SDS011;2007;48.750;9.278;2024-03-07T01:17:35;3.67;;;3.30;;
3985;SDS011;2007;48.750;9.278;2024-03-07T01:20:05;3.60;;;3.10;;
3985;SDS011;2007;48.750;9.278;2024-03-07T01:22:35;4.40;;;4.00;;
3985;SDS011;2007;48.750;9.278;2024-03-07T01:25:03;3.37;;;3.07;;
3985;SDS011;2007;48.750;9.278;2024-03-07T01:27:32;4.00;;;3.60;;
3985;SDS011;2007;48.750;9.278;2024-03-07T01:30:01;4.47;;;4.00;;
3985;SDS011;2007;48.750;9.278;2024-03-07T01:32:29;4.20;;;3.57;;
3985;SDS011;2007;48.750;9.278;2024-03-07T01:34:57;3.70;;;3.40;;
3985;SDS011;2007;48.750;9.278;2024-03-07T01:37:27;4.20;;;3.73;;
3985;SDS011;2007;48.750;9.278;2024-03-07T01:39:55;4.13;;;3.60;;
3985;SDS011;2007;48.750;9.278;2024-03-07T01:42:22;4.10;;;3.70;;
3985;SDS011;2007;48.750;9.278;2024-03-07T01:44:51;3.63;;;3.20;;
3985;SDS011;2007;48.750;9.278;2024-03-07T01:47:19;4.03;;;3.63;;
3985;SDS011;2007;48.750;9.278;2024-03-07T01:49:47;3.87;;;3.40;;
3985;SDS011;2007;48.750;9.278;2024-03-07T01:52:16;4.20;;;3.80;;
3985;SDS011;2007;48.750;9.278;2024-03-07T01:54:47;5.00;;;3.63;;
3985;SDS011;2007;48.750;9.278;2024-03-07T01:57:15;5.10;;;3.80;;
3985;SDS011;2007;48.750;9.278;2024-03-07T01:59:45;4.17;;;3.77;;
3985;SDS011;2007;48.750;9.278;2024-03-07T02:02:13;5.37;;;4.03;;
3985;SDS011;2007;48.750;9.278;2024-03-07T02:04:42;4.00;;;3.60;;
3985;SDS011;2007;48.750;9.278;2024-03-07T02:07:09;4.40;;;4.00;;
3985;SDS011;2007;48.750;9.278;2024-03-07T02:09:38;5.53;;;4.83;;
3985;SDS011;2007;48.750;9.278;2024-03-07T02:12:07;5.37;;;4.37;;
3985;SDS011;2007;48.750;9.278;2024-03-07T02:14:36;5.93;;;4.43;;
3985;SDS011;2007;48.750;9.278;2024-03-07T02:17:04;3.57;;;3.23;;
3985;SDS011;2007;48.750;9.278;2024-03-07T02:19:33;4.60;;;3.97;;
3985;SDS011;2007;48.750;9.278;2024-03-07T02:22:02;4.10;;;3.70;;
3985;SDS011;2007;48.750;9.278;2024-03-07T02:24:30;4.37;;;3.97;;
3985;SDS011;2007;48.750;9.278;2024-03-07T02:26:58;5.80;;;4.53;;
3985;SDS011;2007;48.750;9.278;2024-03-07T02:29:26;4.30;;;3.90;;
3985;SDS011;2007;48.750;9.278;2024-03-07T02:31:54;4.37;;;3.97;;
3985;SDS011;2007;48.750;9.278;2024-03-07T02:34:23;6.03;;;3.73;;
3985;SDS011;2007;48.750;9.278;2024-03-07T02:36:52;4.57;;;3.90;;
3985;SDS011;2007;48.750;9.278;2024-03-07T02:39:22;4.20;;;3.80;;
3985;SDS011;2007;48.750;9.278;2024-03-07T02:41:51;4.63;;;4.23;;
3985;SDS011;2007;48.750;9.278;2024-03-07T02:44:19;6.80;;;4.47;;
3985;SDS011;2007;48.750;9.278;2024-03-07T02:46:47;4.60;;;3.73;;
3985;SDS011;2007;48.750;9.278;2024-03-07T02:49:15;5.43;;;4.57;;
3985;SDS011;2007;48.750;9.278;2024-03-07T02:51:43;4.87;;;4.37;;
3985;SDS011;2007;48.750;9.278;2024-03-07T02:54:11;5.87;;;5.10;;
3985;SDS011;2007;48.750;9.278;2024-03-07T02:56:41;4.93;;;4.43;;
3985;SDS011;2007;48.750;9.278;2024-03-07T02:59:09;5.57;;;4.20;;
3985;SDS011;2007;48.750;9.278;2024-03-07T03:01:37;4.83;;;4.33;;
3985;SDS011;2007;48.750;9.278;2024-03-07T03:04:06;5.00;;;4.50;;
3985;SDS011;2007;48.750;9.278;2024-03-07T03:06:34;4.23;;;3.83;;
3985;SDS011;2007;48.750;9.278;2024-03-07T03:09:01;5.67;;;4.60;;
3985;SDS011;2007;48.750;9.278;2024-03-07T03:11:31;4.80;;;4.30;;
3985;SDS011;2007;48.750;9.278;2024-03-07T03:14:01;6.57;;;5.53;;
3985;SDS011;2007;48.750;9.278;2024-03-07T03:16:30;5.00;;;4.50;;
3985;SDS011;2007;48.750;9.278;2024-03-07T03:19:13;5.80;;;5.13;;
3985;SDS011;2007;48.750;9.278;2024-03-07T03:21:41;5.13;;;4.63;;
3985;SDS011;2007;48.750;9.278;2024-03-07T03:24:10;4.40;;;3.90;;
3985;SDS011;2007;48.750;9.278;2024-03-07T03:26:38;5.30;;;4.80;;
3985;SDS011;2007;48.750;9.278;2024-03-07T03:29:08;5.77;;;5.20;;
3985;SDS011;2007;48.750;9.278;2024-03-07T03:31:38;4.27;;;3.87;;
3985;SDS011;2007;48.750;9.278;2024-03-07T03:34:06;5.77;;;4.90;;
3985;SDS011;2007;48.750;9.278;2024-03-07T03:36:36;5.20;;;4.70;;
3985;SDS011;2007;48.750;9.278;2024-03-07T03:39:05;6.47;;;5.10;;
3985;SDS011;2007;48.750;9.278;2024-03-07T03:41:33;5.13;;;4.70;;
3985;SDS011;2007;48.750;9.278;2024-03-07T03:44:02;5.83;;;5.23;;
3985;SDS011;2007;48.750;9.278;2024-03-07T03:46:31;5.67;;;5.07;;
3985;SDS011;2007;48.750;9.278;2024-03-07T03:48:59;4.83;;;4.33;;
3985;SDS011;2007;48.750;9.278;2024-03-07T03:51:27;5.73;;;5.13;;
3985;SDS011;2007;48.750;9.278;2024-03-07T03:53:56;5.60;;;5.00;;
3985;SDS011;2007;48.750;9.278;2024-03-07T03:56:24;6.53;;;5.33;;
3985;SDS011;2007;48.750;9.278;2024-03-07T03:58:52;5.90;;;5.00;;
3985;SDS011;2007;48.750;9.278;2024-03-07T04:01:20;6.97;;;5.50;;
3985;SDS011;2007;48.750;9.278;2024-03-07T04:03:51;5.97;;;5.37;;
3985;SDS011;2007;48.750;9.278;2024-03-07T04:06:19;6.73;;;4.90;;
3985;SDS011;2007;48.750;9.278;2024-03-07T04:08:47;6.03;;;5.43;;
3985;SDS011;2007;48.750;9.278;2024-03-07T04:11:15;6.27;;;5.67;;
3985;SDS011;2007;48.750;9.278;2024-03-07T04:13:44;5.67;;;5.10;;
3985;SDS011;2007;48.750;9.278;2024-03-07T04:16:13;6.83;;;6.20;;
3985;SDS011;2007;48.750;9.278;2024-03-07T04:18:42;6.70;;;5.80;;
3985;SDS011;2007;48.750;9.278;2024-03-07T04:21:11;5.80;;;5.20;;
3985;SDS011;2007;48.750;9.278;2024-03-07T04:23:39;5.90;;;5.30;;
3985;SDS011;2007;48.750;9.278;2024-03-07T04:26:08;7.67;;;5.90;;
3985;SDS011;2007;48.750;9.278;2024-03-07T04:28:36;5.77;;;5.17;;
3985;SDS011;2007;48.750;9.278;2024-03-07T04:31:03;6.77;;;5.97;;
3985;SDS011;2007;48.750;9.278;2024-03-07T04:33:31;8.13;;;6.67;;
3985;SDS011;2007;48.750;9.278;2024-03-07T04:36:00;6.07;;;5.50;;
3985;SDS011;2007;48.750;9.278;2024-03-07T04:38:31;6.80;;;6.10;;
3985;SDS011;2007;48.750;9.278;2024-03-07T04:40:59;6.93;;;6.23;;
3985;SDS011;2007;48.750;9.278;2024-03-07T04:43:26;6.93;;;6.07;;
3985;SDS011;2007;48.750;9.278;2024-03-07T04:45:54;7.30;;;6.50;;
3985;SDS011;2007;48.750;9.278;2024-03-07T04:48:22;6.67;;;5.90;;
3985;SDS011;2007;48.750;9.278;2024-03-07T04:50:51;5.97;;;5.40;;
3985;SDS011;2007;48.750;9.278;2024-03-07T04:53:19;6.17;;;5.50;;
3985;SDS011;2007;48.750;9.278;2024-03-07T04:55:48;6.80;;;6.10;;
3985;SDS011;2007;48.750;9.278;2024-03-07T04:58:17;7.53;;;6.23;;
3985;SDS011;2007;48.750;9.278;2024-03-07T05:00:45;6.47;;;5.77;;
3985;SDS011;2007;48.750;9.278;2024-03-07T05:03:13;8.03;;;5.43;;
3985;SDS011;2007;48.750;9.278;2024-03-07T05:05:41;7.30;;;6.13;;
3985;SDS011;2007;48.750;9.278;2024-03-07T05:08:09;6.20;;;5.53;;
3985;SDS011;2007;48.750;9.278;2024-03-07T05:10:38;7.73;;;5.87;;
3985;SDS011;2007;48.750;9.278;2024-03-07T05:13:09;7.00;;;5.97;;
3985;SDS011;2007;48.750;9.278;2024-03-07T05:15:37;7.37;;;5.73;;
3985;SDS011;2007;48.750;9.278;2024-03-07T05:18:06;6.47;;;5.77;;
3985;SDS011;2007;48.750;9.278;2024-03-07T05:20:34;6.87;;;5.80;;
3985;SDS011;2007;48.750;9.278;2024-03-07T05:23:03;6.13;;;5.53;;
3985;SDS011;2007;48.750;9.278;2024-03-07T05:25:31;6.33;;;5.73;;
3985;SDS011;2007;48.750;9.278;2024-03-07T05:28:00;7.37;;;6.40;;
3985;SDS011;2007;48.750;9.278;2024-03-07T05:30:30;6.60;;;5.90;;
3985;SDS011;2007;48.750;9.278;2024-03-07T05:32:59;6.30;;;5.70;;
3985;SDS011;2007;48.750;9.278;2024-03-07T05:35:28;7.77;;;6.97;;
3985;SDS011;2007;48.750;9.278;2024-03-07T05:37:56;7.10;;;6.37;;
3985;SDS011;2007;48.750;9.278;2024-03-07T05:40:26;6.47;;;5.83;;
3985;SDS011;2007;48.750;9.278;2024-03-07T05:42:54;6.50;;;5.77;;
3985;SDS011;2007;48.750;9.278;2024-03-07T05:45:23;6.70;;;5.83;;
3985;SDS011;2007;48.750;9.278;2024-03-07T05:47:52;8.70;;;6.80;;
3985;SDS011;2007;48.750;9.278;2024-03-07T05:50:20;7.03;;;6.20;;
3985;SDS011;2007;48.750;9.278;2024-03-07T05:52:48;6.60;;;5.93;;
3985;SDS011;2007;48.750;9.278;2024-03-07T05:55:16;6.23;;;5.63;;
3985;SDS011;2007;48.750;9.278;2024-03-07T05:57:45;6.80;;;6.00;;
3985;SDS011;2007;48.750;9.278;2024-03-07T06:00:14;6.40;;;5.80;;
3985;SDS011;2007;48.750;9.278;2024-03-07T06:02:54;6.73;;;6.07;;
3985;SDS011;2007;48.750;9.278;2024-03-07T06:05:23;6.67;;;5.97;;
3985;SDS011;2007;48.750;9.278;2024-03-07T06:07:51;8.10;;;5.87;;
3985;SDS011;2007;48.750;9.278;2024-03-07T06:10:19;7.43;;;6.73;;
3985;SDS011;2007;48.750;9.278;2024-03-07T06:12:50;9.67;;;7.03;;
3985;SDS011;2007;48.750;9.278;2024-03-07T06:15:35;7.90;;;7.10;;
3985;SDS011;2007;48.750;9.278;2024-03-07T06:18:05;7.80;;;6.00;;
3985;SDS011;2007;48.750;9.278;2024-03-07T06:20:34;7.10;;;6.20;;
3985;SDS011;2007;48.750;9.278;2024-03-07T06:23:03;7.47;;;6.70;;
3985;SDS011;2007;48.750;9.278;2024-03-07T06:25:31;7.03;;;5.80;;
3985;SDS011;2007;48.750;9.278;2024-03-07T06:28:04;7.90;;;6.23;;
3985;SDS011;2007;48.750;9.278;2024-03-07T06:30:38;7.67;;;6.20;;
3985;SDS011;2007;48.750;9.278;2024-03-07T06:33:08;6.63;;;5.23;;
3985;SDS011;2007;48.750;9.278;2024-03-07T06:35:37;7.27;;;6.57;;
3985;SDS011;2007;48.750;9.278;2024-03-07T06:38:05;7.20;;;6.50;;
3985;SDS011;2007;48.750;9.278;2024-03-07T06:40:34;8.17;;;6.20;;
3985;SDS011;2007;48.750;9.278;2024-03-07T06:43:03;6.93;;;6.10;;
3985;SDS011;2007;48.750;9.278;2024-03-07T06:45:33;6.73;;;5.43;;
3985;SDS011;2007;48.750;9.278;2024-03-07T06:48:02;6.67;;;6.07;;
3985;SDS011;2007;48.750;9.278;2024-03-07T06:50:32;7.70;;;6.27;;
3985;SDS011;2007;48.750;9.278;2024-03-07T06:53:04;7.73;;;6.83;;
3985;SDS011;2007;48.750;9.278;2024-03-07T06:55:35;7.10;;;6.37;;
3985;SDS011;2007;48.750;9.278;2024-03-07T06:58:03;7.33;;;6.23;;
3985;SDS011;2007;48.750;9.278;2024-03-07T07:00:32;8.73;;;6.73;;
3985;SDS011;2007;48.750;9.278;2024-03-07T07:03:04;7.87;;;6.03;;
3985;SDS011;2007;48.750;9.278;2024-03-07T07:05:34;9.37;;;6.43;;
3985;SDS011;2007;48.750;9.278;2024-03-07T07:08:03;7.57;;;6.80;;
3985;SDS011;2007;48.750;9.278;2024-03-07T07:10:33;7.90;;;7.10;;
3985;SDS011;2007;48.750;9.278;2024-03-07T07:13:02;9.67;;;6.70;;
3985;SDS011;2007;48.750;9.278;2024-03-07T07:15:31;7.97;;;7.17;;
3985;SDS011;2007;48.750;9.278;2024-03-07T07:17:59;7.60;;;6.83;;
3985;SDS011;2007;48.750;9.278;2024-03-07T07:20:28;6.23;;;5.60;;
3985;SDS011;2007;48.750;9.278;2024-03-07T07:22:58;7.97;;;6.40;;
3985;SDS011;2007;48.750;9.278;2024-03-07T07:25:28;7.53;;;6.77;;
3985;SDS011;2007;48.750;9.278;2024-03-07T07:27:56;7.10;;;6.40;;
3985;SDS011;2007;48.750;9.278;2024-03-07T07:30:24;8.03;;;6.73;;
3985;SDS011;2007;48.750;9.278;2024-03-07T07:32:53;7.20;;;6.47;;
3985;SDS011;2007;48.750;9.278;2024-03-07T07:35:22;8.50;;;7.03;;
3985;SDS011;2007;48.750;9.278;2024-03-07T07:37:50;9.43;;;7.23;;
3985;SDS011;2007;48.750;9.278;2024-03-07T07:40:21;8.10;;;7.30;;
3985;SDS011;2007;48.750;9.278;2024-03-07T07:42:53;6.63;;;6.00;;
3985;SDS011;2007;48.750;9.278;2024-03-07T07:45:21;6.97;;;6.27;;
3985;SDS011;2007;48.750;9.278;2024-03-07T07:47:50;7.77;;;7.03;;
3985;SDS011;2007;48.750;9.278;2024-03-07T07:50:19;8.10;;;6.60;;
3985;SDS011;2007;48.750;9.278;2024-03-07T07:52:49;7.93;;;7.13;;
3985;SDS011;2007;48.750;9.278;2024-03-07T07:55:20;7.83;;;6.87;;
3985;SDS011;2007;48.750;9.278;2024-03-07T07:57:51;7.23;;;6.53;;
3985;SDS011;2007;48.750;9.278;2024-03-07T08:00:20;8.70;;;7.23;;
3985;SDS011;2007;48.750;9.278;2024-03-07T08:02:53;7.67;;;6.70;;
3985;SDS011;2007;48.750;9.278;2024-03-07T08:05:22;7.13;;;6.40;;
3985;SDS011;2007;48.750;9.278;2024-03-07T08:07:51;6.50;;;5.90;;
3985;SDS011;2007;48.750;9.278;2024-03-07T08:10:23;7.23;;;6.53;;
3985;SDS011;2007;48.750;9.278;2024-03-07T08:12:52;7.13;;;6.43;;
3985;SDS011;2007;48.750;9.278;2024-03-07T08:15:20;6.70;;;6.00;;
3985;SDS011;2007;48.750;9.278;2024-03-07T08:17:48;7.63;;;6.30;;
3985;SDS011;2007;48.750;9.278;2024-03-07T08:20:18;7.03;;;6.33;;
3985;SDS011;2007;48.750;9.278;2024-03-07T08:22:48;7.40;;;6.53;;
3985;SDS011;2007;48.750;9.278;2024-03-07T08:25:19;7.40;;;6.57;;
3985;SDS011;2007;48.750;9.278;2024-03-07T08:27:51;7.20;;;6.23;;
3985;SDS011;2007;48.750;9.278;2024-03-07T08:30:20;8.63;;;6.80;;
3985;SDS011;2007;48.750;9.278;2024-03-07T08:32:49;7.07;;;6.37;;
3985;SDS011;2007;48.750;9.278;2024-03-07T08:35:18;7.97;;;6.57;;
3985;SDS011;2007;48.750;9.278;2024-03-07T08:37:47;6.10;;;5.50;;
3985;SDS011;2007;48.750;9.278;2024-03-07T08:40:20;7.67;;;6.90;;
3985;SDS011;2007;48.750;9.278;2024-03-07T08:42:55;7.77;;;6.97;;
3985;SDS011;2007;48.750;9.278;2024-03-07T08:45:24;7.23;;;6.53;;
3985;SDS011;2007;48.750;9.278;2024-03-07T08:47:52;6.97;;;6.10;;
3985;SDS011;2007;48.750;9.278;2024-03-07T08:50:22;8.53;;;6.17;;
3985;SDS011;2007;48.750;9.278;2024-03-07T08:52:52;7.93;;;7.13;;
3985;SDS011;2007;48.750;9.278;2024-03-07T08:55:22;6.90;;;6.13;;
3985;SDS011;2007;48.750;9.278;2024-03-07T08:57:52;6.90;;;6.20;;
3985;SDS011;2007;48.750;9.278;2024-03-07T09:00:22;8.30;;;6.80;;
3985;SDS011;2007;48.750;9.278;2024-03-07T09:02:53;7.17;;;6.00;;
3985;SDS011;2007;48.750;9.278;2024-03-07T09:05:25;7.70;;;6.67;;
3985;SDS011;2007;48.750;9.278;2024-03-07T09:07:54;7.63;;;6.90;;
3985;SDS011;2007;48.750;9.278;2024-03-07T09:10:23;8.30;;;6.30;;
3985;SDS011;2007;48.750;9.278;2024-03-07T09:12:52;6.53;;;5.93;;
3985;SDS011;2007;48.750;9.278;2024-03-07T09:15:22;8.47;;;7.00;;
3985;SDS011;2007;48.750;9.278;2024-03-07T09:17:51;8.10;;;7.30;;
3985;SDS011;2007;48.750;9.278;2024-03-07T09:20:20;9.87;;;7.07;;
3985;SDS011;2007;48.750;9.278;2024-03-07T09:22:48;6.73;;;5.80;;
3985;SDS011;2007;48.750;9.278;2024-03-07T09:25:16;8.20;;;6.30;;
3985;SDS011;2007;48.750;9.278;2024-03-07T09:27:46;7.13;;;6.13;;
3985;SDS011;2007;48.750;9.278;2024-03-07T09:30:14;7.67;;;6.87;;
3985;SDS011;2007;48.750;9.278;2024-03-07T09:32:49;8.30;;;7.00;;
3985;SDS011;2007;48.750;9.278;2024-03-07T09:35:18;7.00;;;6.23;;
3985;SDS011;2007;48.750;9.278;2024-03-07T09:37:46;7.40;;;6.70;;
3985;SDS011;2007;48.750;9.278;2024-03-07T09:40:14;8.20;;;6.70;;
3985;SDS011;2007;48.750;9.278;2024-03-07T09:42:43;7.10;;;6.40;;
3985;SDS011;2007;48.750;9.278;2024-03-07T09:45:15;7.53;;;6.70;;
3985;SDS011;2007;48.750;9.278;2024-03-07T09:47:45;6.87;;;6.17;;
3985;SDS011;2007;48.750;9.278;2024-03-07T09:50:17;7.50;;;6.70;;
3985;SDS011;2007;48.750;9.278;2024-03-07T09:52:49;6.90;;;6.20;;
3985;SDS011;2007;48.750;9.278;2024-03-07T09:55:18;7.33;;;6.53;;
3985;SDS011;2007;48.750;9.278;2024-03-07T09:57:48;9.63;;;7.03;;
3985;SDS011;2007;48.750;9.278;2024-03-07T10:00:17;7.30;;;6.57;;
3985;SDS011;2007;48.750;9.278;2024-03-07T10:02:54;8.30;;;6.13;;
3985;SDS011;2007;48.750;9.278;2024-03-07T10:05:27;6.73;;;6.10;;
3985;SDS011;2007;48.750;9.278;2024-03-07T10:07:58;6.87;;;6.17;;
3985;SDS011;2007;48.750;9.278;2024-03-07T10:10:26;9.03;;;7.33;;
3985;SDS011;2007;48.750;9.278;2024-03-07T10:12:57;7.23;;;6.50;;
3985;SDS011;2007;48.750;9.278;2024-03-07T10:15:27;6.60;;;6.00;;
3985;SDS011;2007;48.750;9.278;2024-03-07T10:17:56;7.80;;;6.90;;
3985;SDS011;2007;48.750;9.278;2024-03-07T10:20:25;7.27;;;6.50;;
3985;SDS011;2007;48.750;9.278;2024-03-07T10:22:55;6.23;;;5.63;;
3985;SDS011;2007;48.750;9.278;2024-03-07T10:25:24;7.13;;;6.40;;
3985;SDS011;2007;48.750;9.278;2024-03-07T10:27:55;7.37;;;6.30;;
3985;SDS011;2007;48.750;9.278;2024-03-07T10:30:24;7.03;;;6.27;;
3985;SDS011;2007;48.750;9.278;2024-03-07T10:32:53;9.60;;;7.37;;
3985;SDS011;2007;48.750;9.278;2024-03-07T10:35:28;6.70;;;6.00;;
3985;SDS011;2007;48.750;9.278;2024-03-07T10:37:59;6.40;;;5.80;;
3985;SDS011;2007;48.750;9.278;2024-03-07T10:40:33;6.53;;;5.90;;
3985;SDS011;2007;48.750;9.278;2024-03-07T10:43:02;7.63;;;6.20;;
3985;SDS011;2007;48.750;9.278;2024-03-07T10:45:37;7.83;;;6.67;;
3985;SDS011;2007;48.750;9.278;2024-03-07T10:48:12;8.13;;;6.57;;
3985;SDS011;2007;48.750;9.278;2024-03-07T10:50:48;7.70;;;6.60;;
3985;SDS011;2007;48.750;9.278;2024-03-07T10:53:28;7.13;;;6.30;;
3985;SDS011;2007;48.750;9.278;2024-03-07T10:56:04;8.37;;;6.17;;
3985;SDS011;2007;48.750;9.278;2024-03-07T10:58:54;7.83;;;6.70;;
3985;SDS011;2007;48.750;9.278;2024-03-07T11:01:35;9.23;;;6.67;;
3985;SDS011;2007;48.750;9.278;2024-03-07T11:04:17;8.27;;;6.20;;
3985;SDS011;2007;48.750;9.278;2024-03-07T11:06:48;6.30;;;5.60;;
3985;SDS011;2007;48.750;9.278;2024-03-07T11:09:18;8.10;;;6.07;;
3985;SDS011;2007;48.750;9.278;2024-03-07T11:11:50;8.60;;;6.80;;
3985;SDS011;2007;48.750;9.278;2024-03-07T11:14:19;6.83;;;5.90;;
3985;SDS011;2007;48.750;9.278;2024-03-07T11:16:48;7.13;;;6.07;;
3985;SDS011;2007;48.750;9.278;2024-03-07T11:19:20;7.30;;;6.60;;
3985;SDS011;2007;48.750;9.278;2024-03-07T11:21:54;7.67;;;6.90;;
3985;SDS011;2007;48.750;9.278;2024-03-07T11:24:24;8.20;;;6.97;;
3985;SDS011;2007;48.750;9.278;2024-03-07T11:26:55;7.73;;;6.90;;
3985;SDS011;2007;48.750;9.278;2024-03-07T11:29:40;7.30;;;6.60;;
3985;SDS011;2007;48.750;9.278;2024-03-07T11:32:13;8.37;;;6.80;;
3985;SDS011;2007;48.750;9.278;2024-03-07T11:34:44;8.07;;;6.43;;
3985;SDS011;2007;48.750;9.278;2024-03-07T11:37:16;6.90;;;6.20;;
3985;SDS011;2007;48.750;9.278;2024-03-07T11:39:50;7.57;;;6.73;;
3985;SDS011;2007;48.750;9.278;2024-03-07T11:42:25;7.60;;;6.80;;
3985;SDS011;2007;48.750;9.278;2024-03-07T11:44:55;8.30;;;6.43;;
3985;SDS011;2007;48.750;9.278;2024-03-07T11:47:24;7.20;;;5.97;;
3985;SDS011;2007;48.750;9.278;2024-03-07T11:49:56;6.10;;;5.43;;
3985;SDS011;2007;48.750;9.278;2024-03-07T11:52:25;7.33;;;6.17;;
3985;SDS011;2007;48.750;9.278;2024-03-07T11:54:55;9.27;;;6.63;;
3985;SDS011;2007;48.750;9.278;2024-03-07T11:57:31;7.43;;;6.60;;
3985;SDS011;2007;48.750;9.278;2024-03-07T12:00:00;6.87;;;5.97;;
3985;SDS011;2007;48.750;9.278;2024-03-07T12:02:36;8.37;;;6.00;;
3985;SDS011;2007;48.750;9.278;2024-03-07T12:05:05;7.10;;;5.60;;
3985;SDS011;2007;48.750;9.278;2024-03-07T12:07:34;7.50;;;6.13;;
3985;SDS011;2007;48.750;9.278;2024-03-07T12:10:04;6.67;;;5.97;;
3985;SDS011;2007;48.750;9.278;2024-03-07T12:12:33;7.87;;;6.10;;
3985;SDS011;2007;48.750;9.278;2024-03-07T12:15:05;8.17;;;6.83;;
3985;SDS011;2007;48.750;9.278;2024-03-07T12:17:41;7.30;;;5.70;;
3985;SDS011;2007;48.750;9.278;2024-03-07T12:20:10;8.00;;;7.13;;
3985;SDS011;2007;48.750;9.278;2024-03-07T12:22:55;13.13;;;6.30;;
3985;SDS011;2007;48.750;9.278;2024-03-07T12:25:25;7.13;;;6.27;;
3985;SDS011;2007;48.750;9.278;2024-03-07T12:28:00;9.67;;;7.63;;
3985;SDS011;2007;48.750;9.278;2024-03-07T12:30:32;6.77;;;5.87;;
3985;SDS011;2007;48.750;9.278;2024-03-07T12:33:01;8.60;;;6.17;;
3985;SDS011;2007;48.750;9.278;2024-03-07T12:35:33;6.93;;;6.17;;
3985;SDS011;2007;48.750;9.278;2024-03-07T12:38:02;8.07;;;6.33;;
3985;SDS011;2007;48.750;9.278;2024-03-07T12:40:32;7.30;;;6.40;;
3985;SDS011;2007;48.750;9.278;2024-03-07T12:43:01;8.20;;;6.60;;
3985;SDS011;2007;48.750;9.278;2024-03-07T12:45:29;7.73;;;6.37;;
3985;SDS011;2007;48.750;9.278;2024-03-07T12:48:00;8.10;;;6.40;;
3985;SDS011;2007;48.750;9.278;2024-03-07T12:50:31;7.43;;;6.40;;
3985;SDS011;2007;48.750;9.278;2024-03-07T12:53:03;7.10;;;6.33;;
3985;SDS011;2007;48.750;9.278;2024-03-07T12:55:33;8.10;;;6.53;;
3985;SDS011;2007;48.750;9.278;2024-03-07T12:58:02;7.70;;;6.90;;
3985;SDS011;2007;48.750;9.278;2024-03-07T13:00:31;7.57;;;6.87;;
3985;SDS011;2007;48.750;9.278;2024-03-07T13:02:58;7.83;;;6.33;;
3985;SDS011;2007;48.750;9.278;2024-03-07T13:05:27;8.13;;;7.10;;
3985;SDS011;2007;48.750;9.278;2024-03-07T13:07:55;8.30;;;6.83;;
3985;SDS011;2007;48.750;9.278;2024-03-07T13:10:23;6.90;;;6.20;;
3985;SDS011;2007;48.750;9.278;2024-03-07T13:12:52;8.80;;;6.70;;
3985;SDS011;2007;48.750;9.278;2024-03-07T13:15:20;6.97;;;6.27;;
3985;SDS011;2007;48.750;9.278;2024-03-07T13:17:50;7.67;;;6.33;;
3985;SDS011;2007;48.750;9.278;2024-03-07T13:20:20;7.47;;;6.77;;
3985;SDS011;2007;48.750;9.278;2024-03-07T13:22:52;8.30;;;6.20;;
3985;SDS011;2007;48.750;9.278;2024-03-07T13:25:25;6.43;;;5.77;;
3985;SDS011;2007;48.750;9.278;2024-03-07T13:27:59;7.80;;;6.50;;
3985;SDS011;2007;48.750;9.278;2024-03-07T13:30:29;8.20;;;6.27;;
3985;SDS011;2007;48.750;9.278;2024-03-07T13:32:57;7.50;;;6.53;;
3985;SDS011;2007;48.750;9.278;2024-03-07T13:35:26;7.87;;;6.07;;
3985;SDS011;2007;48.750;9.278;2024-03-07T13:37:55;7.50;;;6.60;;
3985;SDS011;2007;48.750;9.278;2024-03-07T13:40:23;7.27;;;6.57;;
3985;SDS011;2007;48.750;9.278;2024-03-07T13:42:52;7.83;;;6.43;;
3985;SDS011;2007;48.750;9.278;2024-03-07T13:45:24;8.63;;;6.47;;
3985;SDS011;2007;48.750;9.278;2024-03-07T13:47:54;8.23;;;6.37;;
3985;SDS011;2007;48.750;9.278;2024-03-07T13:50:24;6.30;;;5.70;;
3985;SDS011;2007;48.750;9.278;2024-03-07T13:53:16;7.87;;;6.10;;
3985;SDS011;2007;48.750;9.278;2024-03-07T13:56:00;7.90;;;6.43;;
3985;SDS011;2007;48.750;9.278;2024-03-07T13:58:56;6.87;;;6.17;;
3985;SDS011;2007;48.750;9.278;2024-03-07T14:01:48;6.57;;;5.80;;
3985;SDS011;2007;48.750;9.278;2024-03-07T14:04:51;7.03;;;6.13;;
3985;SDS011;2007;48.750;9.278;2024-03-07T14:07:50;6.20;;;5.60;;
3985;SDS011;2007;48.750;9.278;2024-03-07T14:10:38;8.70;;;6.70;;
3985;SDS011;2007;48.750;9.278;2024-03-07T14:13:42;6.87;;;6.23;;
3985;SDS011;2007;48.750;9.278;2024-03-07T14:16:34;6.87;;;6.20;;
3985;SDS011;2007;48.750;9.278;2024-03-07T14:19:41;8.13;;;6.10;;
3985;SDS011;2007;48.750;9.278;2024-03-07T14:22:30;7.60;;;6.37;;
3985;SDS011;2007;48.750;9.278;2024-03-07T14:28:14;6.73;;;6.03;;
3985;SDS011;2007;48.750;9.278;2024-03-07T14:30:55;7.27;;;6.40;;
3985;SDS011;2007;48.750;9.278;2024-03-07T14:33:28;7.90;;;7.00;;
3985;SDS011;2007;48.750;9.278;2024-03-07T14:36:03;8.30;;;6.80;;
3985;SDS011;2007;48.750;9.278;2024-03-07T14:38:40;8.13;;;6.90;;
3985;SDS011;2007;48.750;9.278;2024-03-07T14:41:15;5.90;;;5.30;;
3985;SDS011;2007;48.750;9.278;2024-03-07T14:43:45;7.90;;;7.10;;
3985;SDS011;2007;48.750;9.278;2024-03-07T14:46:14;7.80;;;5.80;;
3985;SDS011;2007;48.750;9.278;2024-03-07T14:48:45;7.97;;;7.17;;
3985;SDS011;2007;48.750;9.278;2024-03-07T14:51:14;7.27;;;6.57;;
3985;SDS011;2007;48.750;9.278;2024-03-07T14:53:42;8.00;;;7.17;;
3985;SDS011;2007;48.750;9.278;2024-03-07T14:56:11;7.00;;;5.90;;
3985;SDS011;2007;48.750;9.278;2024-03-07T14:58:39;7.00;;;6.30;;
3985;SDS011;2007;48.750;9.278;2024-03-07T15:01:08;8.20;;;6.70;;
3985;SDS011;2007;48.750;9.278;2024-03-07T15:03:36;7.10;;;5.57;;
3985;SDS011;2007;48.750;9.278;2024-03-07T15:06:07;7.00;;;6.00;;
3985;SDS011;2007;48.750;9.278;2024-03-07T15:08:35;7.00;;;6.17;;
3985;SDS011;2007;48.750;9.278;2024-03-07T15:11:07;7.43;;;6.13;;
3985;SDS011;2007;48.750;9.278;2024-03-07T15:13:44;8.20;;;7.13;;
3985;SDS011;2007;48.750;9.278;2024-03-07T15:16:12;7.10;;;5.80;;
3985;SDS011;2007;48.750;9.278;2024-03-07T15:18:58;8.47;;;6.63;;
3985;SDS011;2007;48.750;9.278;2024-03-07T15:21:27;6.60;;;5.70;;
3985;SDS011;2007;48.750;9.278;2024-03-07T15:23:55;6.63;;;5.90;;
3985;SDS011;2007;48.750;9.278;2024-03-07T15:26:24;7.53;;;6.80;;
3985;SDS011;2007;48.750;9.278;2024-03-07T15:28:53;8.07;;;6.57;;
3985;SDS011;2007;48.750;9.278;2024-03-07T15:31:21;8.20;;;6.53;;
3985;SDS011;2007;48.750;9.278;2024-03-07T15:33:50;7.20;;;6.53;;
3985;SDS011;2007;48.750;9.278;2024-03-07T15:36:18;8.20;;;6.50;;
3985;SDS011;2007;48.750;9.278;2024-03-07T15:38:49;7.30;;;6.57;;